Time;durP1;ratioP1;P1;durP2;ratioP2;P2;SDS_P1;SDS_P2;PMS_P1;PMS_P2;Temp;Humidity;BMP_temperature;BMP_pressure;BME280_temperature;BME280_humidity;BME280_pressure;Samples;Min_cycle;Max_cycle;Signal;HPM_P1;HPM_P2
2022/04/27 00:01:35;;;;;;;12.52;11.23;;;11.70;83.70;;;;;;6174053;23;20385;-77
2022/04/27 00:04:02;;;;;;;15.20;12.90;;;11.60;84.40;;;;;;6173582;23;20774;-78
2022/04/27 00:06:29;;;;;;;14.77;12.98;;;11.40;86.70;;;;;;6175278;23;20460;-77
2022/04/27 00:08:56;;;;;;;14.00;11.98;;;11.30;86.80;;;;;;6173405;23;20388;-78
2022/04/27 00:11:23;;;;;;;12.90;11.70;;;11.20;86.90;;;;;;6174025;23;20386;-78
2022/04/27 00:13:50;;;;;;;13.40;11.20;;;11.10;86.70;;;;;;6174728;23;20409;-76
2022/04/27 00:16:17;;;;;;;15.00;11.80;;;11.10;87.20;;;;;;6174857;23;20374;-77
2022/04/27 00:18:44;;;;;;;12.65;11.20;;;11.00;87.70;;;;;;6177424;23;20385;-76
2022/04/27 00:21:11;;;;;;;11.80;10.70;;;11.00;86.90;;;;;;6175429;23;21011;-78
2022/04/27 00:23:38;;;;;;;13.23;11.10;;;11.10;87.00;;;;;;6154145;23;20382;-79
2022/04/27 00:26:05;;;;;;;10.95;8.38;;;11.10;86.70;;;;;;6176304;23;20441;-78
2022/04/27 00:28:32;;;;;;;5.85;5.18;;;11.10;85.70;;;;;;6177282;23;20448;-76
2022/04/27 00:30:59;;;;;;;7.10;4.80;;;11.20;83.10;;;;;;6177210;23;20413;-79
2022/04/27 00:33:26;;;;;;;5.20;3.85;;;11.20;79.70;;;;;;6176124;23;20436;-78
2022/04/27 00:35:52;;;;;;;4.30;3.90;;;11.30;78.60;;;;;;6177291;23;20437;-77
2022/04/27 00:38:19;;;;;;;4.32;3.20;;;11.40;77.20;;;;;;6152898;23;20854;-78
2022/04/27 00:40:46;;;;;;;4.15;3.33;;;11.40;76.30;;;;;;6153601;23;20373;-77
2022/04/27 00:43:14;;;;;;;4.05;2.83;;;11.50;75.20;;;;;;6175903;23;20441;-76
2022/04/27 00:45:42;;;;;;;4.63;3.00;;;11.60;74.70;;;;;;6176554;23;20382;-76
2022/04/27 00:48:11;;;;;;;3.80;2.58;;;11.70;73.10;;;;;;6175181;23;20763;-76
2022/04/27 00:50:39;;;;;;;3.92;2.65;;;11.80;72.60;;;;;;6175804;23;20378;-76
2022/04/27 00:53:06;;;;;;;5.40;2.60;;;11.80;71.90;;;;;;6175696;23;20460;-78
2022/04/27 00:55:33;;;;;;;3.67;2.30;;;11.90;70.80;;;;;;6176553;23;20382;-76
2022/04/27 00:58:01;;;;;;;3.38;2.20;;;11.90;70.20;;;;;;6177155;23;20386;-78
2022/04/27 01:00:28;;;;;;;4.07;2.80;;;11.90;70.30;;;;;;6205376;23;20454;-78
2022/04/27 01:02:55;;;;;;;6.25;2.83;;;12.00;69.00;;;;;;6181550;23;20412;-78
2022/04/27 01:05:23;;;;;;;3.00;2.15;;;12.00;67.70;;;;;;6181183;23;20860;-79
2022/04/27 01:07:50;;;;;;;3.92;2.17;;;12.00;68.00;;;;;;6182568;23;20368;-78
2022/04/27 01:10:17;;;;;;;3.37;2.07;;;12.10;67.40;;;;;;6180897;23;20489;-77
2022/04/27 01:12:44;;;;;;;4.83;2.20;;;12.10;66.70;;;;;;6181271;23;20706;-77
2022/04/27 01:15:11;;;;;;;4.13;2.38;;;12.10;66.50;;;;;;6181096;23;20376;-78
2022/04/27 01:17:38;;;;;;;4.35;2.00;;;12.10;66.30;;;;;;6181247;23;20376;-77
2022/04/27 01:20:05;;;;;;;2.65;1.80;;;12.00;65.50;;;;;;6182092;23;20454;-77
2022/04/27 01:22:32;;;;;;;3.58;1.83;;;12.20;65.00;;;;;;6180656;23;20431;-76
2022/04/27 01:24:59;;;;;;;3.25;1.95;;;12.20;65.60;;;;;;6181150;23;20392;-78
2022/04/27 01:27:26;;;;;;;3.30;1.98;;;12.10;65.80;;;;;;6180042;23;20415;-76
2022/04/27 01:29:53;;;;;;;1.52;1.40;;;12.20;65.20;;;;;;6181446;23;20368;-76
2022/04/27 01:32:20;;;;;;;2.88;1.88;;;12.20;64.60;;;;;;6180053;23;20825;-78
2022/04/27 01:34:47;;;;;;;2.72;1.75;;;12.20;64.80;;;;;;6181836;23;20392;-76
2022/04/27 01:39:59;;;;;;;2.60;1.67;;;12.10;66.20;;;;;;6182252;23;20380;-77
2022/04/27 01:42:26;;;;;;;2.47;1.60;;;12.00;65.20;;;;;;6180061;23;20364;-76
2022/04/27 01:44:53;;;;;;;2.63;1.80;;;12.00;64.80;;;;;;6181161;23;20384;-77
2022/04/27 01:47:20;;;;;;;2.50;1.90;;;12.00;65.10;;;;;;6180268;23;20369;-78
2022/04/27 01:49:47;;;;;;;2.40;1.77;;;11.90;65.00;;;;;;6181188;23;20377;-79
2022/04/27 01:54:59;;;;;;;3.97;1.90;;;11.90;64.50;;;;;;6182917;23;20438;-76
2022/04/27 01:57:26;;;;;;;2.07;1.57;;;11.90;64.20;;;;;;6179844;23;20367;-77
2022/04/27 01:59:55;;;;;;;3.50;1.38;;;11.90;64.40;;;;;;6181921;23;20400;-77
2022/04/27 02:02:22;;;;;;;3.20;1.60;;;11.80;64.80;;;;;;6179678;23;20376;-77
2022/04/27 02:04:49;;;;;;;2.25;1.40;;;11.80;64.90;;;;;;6181286;23;20384;-76
2022/04/27 02:07:16;;;;;;;1.98;1.40;;;11.80;65.00;;;;;;6167506;23;20825;-78
2022/04/27 02:09:43;;;;;;;2.38;1.52;;;11.80;63.60;;;;;;6205949;22;20591;-77
2022/04/27 02:12:09;;;;;;;2.23;1.20;;;11.80;62.20;;;;;;6181950;23;20419;-77
2022/04/27 02:14:36;;;;;;;2.93;1.40;;;11.80;62.00;;;;;;6179894;22;20399;-76
2022/04/27 02:17:04;;;;;;;1.50;1.00;;;11.80;62.20;;;;;;6188613;23;20366;-79
2022/04/27 02:19:31;;;;;;;2.63;1.42;;;11.80;62.70;;;;;;6179940;23;20375;-76
2022/04/27 02:21:58;;;;;;;2.65;1.10;;;11.70;62.80;;;;;;6181110;23;20368;-76
2022/04/27 02:24:26;;;;;;;2.40;1.50;;;11.70;63.30;;;;;;6179528;23;20408;-77
2022/04/27 02:26:54;;;;;;;2.38;1.30;;;11.60;62.90;;;;;;6181119;23;20372;-77
2022/04/27 02:29:22;;;;;;;2.35;1.20;;;11.60;62.50;;;;;;6179462;23;20379;-77
2022/04/27 02:31:50;;;;;;;2.63;1.40;;;11.60;61.90;;;;;;6180193;23;20426;-78
2022/04/27 02:34:17;;;;;;;2.57;1.30;;;11.60;61.80;;;;;;6180167;23;20386;-77
2022/04/27 02:36:45;;;;;;;1.83;1.15;;;11.60;62.30;;;;;;6180514;23;20459;-78
2022/04/27 02:39:12;;;;;;;1.50;1.10;;;11.50;63.00;;;;;;6179781;23;20439;-78
2022/04/27 02:41:41;;;;;;;2.47;1.30;;;11.40;62.40;;;;;;6179453;23;20829;-76
2022/04/27 02:44:08;;;;;;;2.10;1.17;;;11.30;61.90;;;;;;6170917;23;20921;-79
2022/04/27 02:46:35;;;;;;;1.75;1.00;;;11.40;61.70;;;;;;6205200;23;20380;-76
2022/04/27 02:51:49;;;;;;;1.70;1.25;;;11.30;62.10;;;;;;6180631;23;20427;-77
2022/04/27 02:54:18;;;;;;;1.77;1.00;;;11.20;62.50;;;;;;6180221;23;20377;-78
2022/04/27 02:56:45;;;;;;;2.13;1.23;;;11.20;61.70;;;;;;6179733;23;20381;-75
2022/04/27 02:59:12;;;;;;;1.40;1.00;;;11.30;60.60;;;;;;6182271;23;20379;-76
2022/04/27 03:01:39;;;;;;;1.75;1.10;;;11.30;60.80;;;;;;6179496;23;20876;-76
2022/04/27 03:04:07;;;;;;;2.55;1.10;;;11.30;61.00;;;;;;6180602;23;20364;-76
2022/04/27 03:06:34;;;;;;;2.45;1.13;;;11.40;59.90;;;;;;6178573;23;20384;-78
2022/04/27 03:09:02;;;;;;;2.20;1.08;;;11.50;59.10;;;;;;6137253;23;20374;-78
2022/04/27 03:11:29;;;;;;;2.53;1.30;;;11.60;59.40;;;;;;6112870;23;20386;-77
2022/04/27 03:13:56;;;;;;;1.98;1.17;;;11.60;59.20;;;;;;6150279;23;20417;-79
2022/04/27 03:16:24;;;;;;;1.63;0.93;;;11.70;57.90;;;;;;6175685;23;20378;-78
2022/04/27 03:18:51;;;;;;;3.05;0.80;;;11.80;57.60;;;;;;6149211;23;20406;-77
2022/04/27 03:21:18;;;;;;;2.90;1.10;;;11.80;57.20;;;;;;6176029;23;20413;-78
2022/04/27 03:23:45;;;;;;;4.15;1.02;;;11.80;57.30;;;;;;6173750;23;20408;-77
2022/04/27 03:26:12;;;;;;;2.92;0.93;;;11.80;57.50;;;;;;6175597;23;20839;-76
2022/04/27 03:28:39;;;;;;;1.33;0.88;;;11.70;57.00;;;;;;6173994;23;20379;-77
2022/04/27 03:31:07;;;;;;;3.10;0.90;;;11.60;57.50;;;;;;6175304;23;20436;-78
2022/04/27 03:33:34;;;;;;;1.35;0.90;;;11.60;57.20;;;;;;6174995;23;20380;-79
2022/04/27 03:36:01;;;;;;;1.60;0.90;;;11.60;56.90;;;;;;6175971;23;20377;-78
2022/04/27 03:38:37;;;;;;;1.45;0.90;;;11.60;57.50;;;;;;6175303;23;20378;-78
2022/04/27 03:41:05;;;;;;;1.60;1.10;;;11.50;58.40;;;;;;6174089;23;20401;-77
2022/04/27 03:43:32;;;;;;;2.20;0.98;;;11.60;57.10;;;;;;6150699;23;20421;-78
2022/04/27 03:45:59;;;;;;;1.60;0.98;;;11.60;57.00;;;;;;6172954;23;20862;-76
2022/04/27 03:48:26;;;;;;;3.00;1.07;;;11.50;56.90;;;;;;6174560;23;20408;-78
2022/04/27 03:50:53;;;;;;;2.37;0.87;;;11.50;57.10;;;;;;6172543;23;20382;-76
2022/04/27 03:53:20;;;;;;;2.60;1.10;;;11.60;55.90;;;;;;6150745;23;20848;-76
2022/04/27 03:55:47;;;;;;;2.20;0.90;;;11.70;55.60;;;;;;6175342;23;20375;-78
2022/04/27 03:58:14;;;;;;;1.35;0.80;;;11.80;55.00;;;;;;6149176;23;20382;-76
2022/04/27 04:00:40;;;;;;;2.17;0.77;;;11.90;54.80;;;;;;6174181;23;20700;-77
2022/04/27 04:03:08;;;;;;;0.98;0.70;;;11.90;54.60;;;;;;6173896;23;20751;-76
2022/04/27 04:05:41;;;;;;;1.38;0.70;;;12.00;53.40;;;;;;6163751;23;20376;-78
2022/04/27 04:08:08;;;;;;;1.30;0.70;;;12.00;54.10;;;;;;6149766;23;20378;-77
2022/04/27 04:10:35;;;;;;;1.58;0.80;;;11.90;54.30;;;;;;6174621;23;20389;-78
2022/04/27 04:13:05;;;;;;;1.52;0.80;;;12.00;54.20;;;;;;6174703;23;20444;-78
2022/04/27 04:15:37;;;;;;;2.40;1.02;;;11.90;53.90;;;;;;6174049;23;20370;-77
2022/04/27 04:18:07;;;;;;;1.10;0.70;;;12.00;53.80;;;;;;6175359;23;20851;-77
2022/04/27 04:20:34;;;;;;;1.27;0.90;;;12.00;53.80;;;;;;6173380;23;20378;-78
2022/04/27 04:23:01;;;;;;;1.23;1.03;;;11.90;54.10;;;;;;6174436;23;20381;-78
2022/04/27 04:28:31;;;;;;;2.33;1.20;;;11.80;55.10;;;;;;6151891;23;20371;-77
2022/04/27 04:31:01;;;;;;;1.80;0.70;;;11.80;54.60;;;;;;6141651;23;20855;-76
2022/04/27 04:33:28;;;;;;;1.90;0.80;;;11.80;53.40;;;;;;6179827;23;20833;-76
2022/04/27 04:36:00;;;;;;;1.65;0.82;;;11.80;53.00;;;;;;6179345;23;20380;-78
2022/04/27 04:38:26;;;;;;;2.83;0.93;;;12.00;52.70;;;;;;6180383;23;20753;-78
2022/04/27 04:40:55;;;;;;;0.90;0.70;;;11.90;53.90;;;;;;6178530;23;20372;-78
2022/04/27 04:43:22;;;;;;;3.33;1.05;;;11.80;54.30;;;;;;6134180;23;20429;-77
2022/04/27 04:45:49;;;;;;;2.13;0.90;;;11.70;54.90;;;;;;6176044;23;20452;-79
2022/04/27 04:48:16;;;;;;;2.15;1.10;;;11.60;56.20;;;;;;6159439;23;20379;-76
2022/04/27 04:50:43;;;;;;;2.65;1.00;;;11.50;56.30;;;;;;6175314;23;20427;-78
2022/04/27 04:53:10;;;;;;;2.00;1.00;;;11.40;56.20;;;;;;6179825;23;20372;-78
2022/04/27 04:55:37;;;;;;;2.30;1.02;;;11.50;55.80;;;;;;6180601;23;20487;-77
2022/04/27 04:58:04;;;;;;;1.60;0.80;;;11.50;54.40;;;;;;6178379;23;20423;-76
2022/04/27 05:00:31;;;;;;;2.78;1.00;;;11.50;55.20;;;;;;6179674;23;20377;-78
2022/04/27 05:02:59;;;;;;;3.03;1.45;;;11.60;54.60;;;;;;6180475;22;20848;-77
2022/04/27 05:05:27;;;;;;;1.20;0.80;;;11.70;55.40;;;;;;6135479;23;20377;-78
2022/04/27 05:07:54;;;;;;;2.70;0.90;;;11.70;54.00;;;;;;6178623;23;20829;-77
2022/04/27 05:10:22;;;;;;;1.45;1.00;;;11.80;53.50;;;;;;6181826;23;20857;-78
2022/04/27 05:12:49;;;;;;;3.00;0.88;;;11.90;53.00;;;;;;6181368;23;20863;-77
2022/04/27 05:15:16;;;;;;;1.17;0.80;;;12.00;53.10;;;;;;6182456;23;20364;-77
2022/04/27 05:17:43;;;;;;;2.05;0.80;;;12.00;54.40;;;;;;6182529;23;20376;-77
2022/04/27 05:20:10;;;;;;;2.47;1.00;;;12.00;54.30;;;;;;6167826;23;20427;-77
2022/04/27 05:22:38;;;;;;;1.27;0.82;;;12.00;52.50;;;;;;6181780;23;20892;-78
2022/04/27 05:25:07;;;;;;;1.10;0.80;;;12.00;52.80;;;;;;6133089;23;20710;-78
2022/04/27 05:27:35;;;;;;;1.20;0.80;;;12.00;53.00;;;;;;6181655;23;20384;-77
2022/04/27 05:32:49;;;;;;;4.40;1.00;;;12.00;52.50;;;;;;6182935;23;20745;-77
2022/04/27 05:35:16;;;;;;;4.45;1.00;;;12.10;52.40;;;;;;6181069;23;20829;-77
2022/04/27 05:37:43;;;;;;;2.53;1.60;;;12.00;52.50;;;;;;6169214;23;20376;-78
2022/04/27 05:40:11;;;;;;;1.85;1.00;;;11.90;53.20;;;;;;6180412;23;20377;-78
2022/04/27 05:42:39;;;;;;;3.10;0.90;;;11.90;53.60;;;;;;6182434;23;20423;-78
2022/04/27 05:45:10;;;;;;;2.70;0.90;;;11.90;53.00;;;;;;6145353;23;20434;-78
2022/04/27 05:47:37;;;;;;;3.73;1.23;;;11.90;53.60;;;;;;6172272;23;20375;-77
2022/04/27 05:50:05;;;;;;;1.23;0.95;;;11.90;53.70;;;;;;6206003;23;20376;-78
2022/04/27 05:52:49;;;;;;;3.45;1.60;;;12.00;52.40;;;;;;6132965;23;20437;-78
2022/04/27 05:55:16;;;;;;;2.00;1.00;;;12.00;51.50;;;;;;6180451;23;20372;-78
2022/04/27 05:57:43;;;;;;;3.03;1.00;;;12.10;50.60;;;;;;6182035;23;20368;-78
2022/04/27 06:00:11;;;;;;;1.40;0.82;;;12.10;50.70;;;;;;6180987;23;20372;-76
2022/04/27 06:02:38;;;;;;;2.47;1.00;;;12.20;50.10;;;;;;6183453;23;20365;-76
2022/04/27 06:05:07;;;;;;;2.00;1.10;;;12.20;51.30;;;;;;6183115;23;20365;-78
2022/04/27 06:07:40;;;;;;;3.00;1.40;;;12.10;51.40;;;;;;6182419;23;20380;-79
2022/04/27 06:10:10;;;;;;;1.88;1.20;;;12.20;52.00;;;;;;6180694;23;20931;-79
2022/04/27 06:12:47;;;;;;;3.70;1.10;;;12.20;51.30;;;;;;6180421;23;20372;-79
2022/04/27 06:15:14;;;;;;;1.58;1.00;;;12.30;51.60;;;;;;6170600;23;20387;-78
2022/04/27 06:17:47;;;;;;;3.83;1.17;;;12.30;52.30;;;;;;6192689;23;20740;-77
2022/04/27 06:20:14;;;;;;;3.05;1.50;;;12.30;53.70;;;;;;6181328;23;20403;-78
2022/04/27 06:22:41;;;;;;;2.97;1.40;;;12.30;54.00;;;;;;6182013;23;20380;-76
2022/04/27 06:25:08;;;;;;;1.90;1.25;;;12.40;52.80;;;;;;6181757;23;20377;-78
2022/04/27 06:27:35;;;;;;;2.47;1.20;;;12.50;51.80;;;;;;6182285;23;20427;-76
2022/04/27 06:30:03;;;;;;;1.83;1.10;;;12.50;52.70;;;;;;6182848;22;20365;-76
2022/04/27 06:32:35;;;;;;;1.88;1.00;;;12.60;51.80;;;;;;6179897;23;20384;-79
2022/04/27 06:35:09;;;;;;;2.15;1.17;;;12.70;50.70;;;;;;6132108;23;20419;-78
2022/04/27 06:37:36;;;;;;;2.08;1.08;;;12.80;50.80;;;;;;6182890;23;20855;-78
2022/04/27 06:40:04;;;;;;;3.80;1.10;;;12.90;51.50;;;;;;6180920;22;20903;-77
2022/04/27 06:42:30;;;;;;;1.90;1.00;;;13.00;51.50;;;;;;6181162;23;20380;-79
2022/04/27 06:45:04;;;;;;;1.42;1.02;;;13.10;50.50;;;;;;6180413;23;20387;-77
2022/04/27 06:47:31;;;;;;;3.03;1.20;;;13.20;49.50;;;;;;6181508;23;20376;-77
2022/04/27 06:50:02;;;;;;;2.00;1.20;;;13.30;51.10;;;;;;6182734;22;20364;-78
2022/04/27 06:52:29;;;;;;;2.45;1.50;;;13.30;50.30;;;;;;6181419;23;20438;-78
2022/04/27 06:54:56;;;;;;;2.83;1.10;;;13.40;49.40;;;;;;6180578;23;20407;-78
2022/04/27 06:57:23;;;;;;;2.65;1.35;;;13.40;50.10;;;;;;6181453;23;20368;-77
2022/04/27 06:59:50;;;;;;;2.00;1.42;;;13.50;49.90;;;;;;6180061;23;20384;-80
2022/04/27 07:02:17;;;;;;;4.95;1.50;;;13.70;51.10;;;;;;6182260;23;20369;-78
2022/04/27 07:04:50;;;;;;;3.33;1.50;;;13.80;51.10;;;;;;6182496;23;20375;-78
2022/04/27 07:07:17;;;;;;;2.50;1.38;;;14.00;50.60;;;;;;6182709;23;20865;-77
2022/04/27 07:09:44;;;;;;;2.10;1.48;;;14.20;51.00;;;;;;6179187;23;20404;-78
2022/04/27 07:12:13;;;;;;;1.92;1.20;;;14.30;48.50;;;;;;6181310;22;20364;-79
2022/04/27 07:14:45;;;;;;;2.50;1.10;;;14.60;48.90;;;;;;6183570;23;20368;-79
2022/04/27 07:17:12;;;;;;;3.25;1.30;;;14.70;48.40;;;;;;6181091;23;21872;-79
2022/04/27 07:19:39;;;;;;;2.47;1.30;;;14.90;47.20;;;;;;6181394;23;20780;-78
2022/04/27 07:22:06;;;;;;;2.35;1.35;;;15.20;46.70;;;;;;6178895;23;20381;-80
2022/04/27 07:24:33;;;;;;;2.78;1.40;;;15.30;48.60;;;;;;6178953;23;20833;-77
2022/04/27 07:27:00;;;;;;;3.58;1.13;;;15.50;46.80;;;;;;6180752;23;20691;-79
2022/04/27 07:29:27;;;;;;;2.95;1.25;;;15.60;45.60;;;;;;6180178;23;20385;-79
2022/04/27 07:32:00;;;;;;;2.65;1.23;;;15.70;44.70;;;;;;6180857;23;20376;-79
2022/04/27 07:34:27;;;;;;;3.00;1.20;;;15.80;44.30;;;;;;6181804;23;20373;-77
2022/04/27 07:36:57;;;;;;;2.50;1.25;;;15.80;44.80;;;;;;6180633;23;20675;-79
2022/04/27 07:39:25;;;;;;;1.63;1.20;;;15.90;45.00;;;;;;6183214;22;20872;-78
2022/04/27 07:41:52;;;;;;;2.55;1.40;;;15.90;44.90;;;;;;6181042;23;20380;-78
2022/04/27 07:44:18;;;;;;;2.15;1.70;;;16.10;45.00;;;;;;6181232;22;20380;-77
2022/04/27 07:46:48;;;;;;;8.77;6.10;;;16.20;47.70;;;;;;6180518;23;20404;-77
2022/04/27 07:49:19;;;;;;;7.78;5.43;;;16.30;57.70;;;;;;6180944;23;20431;-78
2022/04/27 07:51:50;;;;;;;8.68;6.70;;;16.50;57.20;;;;;;6181694;23;20368;-78
2022/04/27 07:54:17;;;;;;;5.97;5.18;;;16.60;58.50;;;;;;6181286;22;20438;-78
2022/04/27 07:56:44;;;;;;;5.70;4.13;;;16.70;56.00;;;;;;6181865;23;20391;-78
2022/04/27 07:59:11;;;;;;;5.53;4.57;;;16.80;55.20;;;;;;6181451;23;20752;-79
2022/04/27 08:01:39;;;;;;;7.72;4.20;;;16.90;57.00;;;;;;6180359;23;20438;-79
2022/04/27 08:04:07;;;;;;;4.80;3.40;;;16.80;55.20;;;;;;6182870;23;20404;-77
2022/04/27 08:06:36;;;;;;;4.82;3.72;;;16.90;55.20;;;;;;6179975;23;20380;-78
2022/04/27 08:09:03;;;;;;;6.13;4.05;;;17.20;55.80;;;;;;6181306;23;20365;-77
2022/04/27 08:11:30;;;;;;;4.97;3.97;;;17.20;55.50;;;;;;6182167;23;20671;-79
2022/04/27 08:13:57;;;;;;;7.70;4.82;;;17.30;54.10;;;;;;6135630;23;20373;-78
2022/04/27 08:16:24;;;;;;;5.10;3.90;;;17.40;54.60;;;;;;6178581;23;20435;-78
2022/04/27 08:18:52;;;;;;;5.10;4.50;;;17.40;54.10;;;;;;6182877;23;20385;-80
2022/04/27 08:21:21;;;;;;;6.55;5.40;;;17.50;56.30;;;;;;6180271;23;20423;-79
2022/04/27 08:23:49;;;;;;;7.22;5.97;;;17.60;57.20;;;;;;6170260;23;21222;-78
2022/04/27 08:26:15;;;;;;;7.05;5.38;;;17.60;56.50;;;;;;6195223;23;20387;-78
2022/04/27 08:28:43;;;;;;;7.75;6.05;;;17.60;57.20;;;;;;6180966;23;20423;-79
2022/04/27 08:31:12;;;;;;;9.20;6.25;;;17.70;58.30;;;;;;6181000;23;20399;-78
2022/04/27 08:33:39;;;;;;;9.55;6.75;;;18.00;57.70;;;;;;6178855;23;20757;-78
2022/04/27 08:36:07;;;;;;;8.95;5.93;;;17.80;58.40;;;;;;6183198;23;20833;-78
2022/04/27 08:38:54;;;;;;;8.05;5.60;;;17.70;60.20;;;;;;6183016;23;20421;-80
2022/04/27 08:41:21;;;;;;;7.00;5.05;;;17.80;57.70;;;;;;6184997;23;20705;-78
2022/04/27 08:43:48;;;;;;;6.40;5.00;;;17.90;58.50;;;;;;6182841;23;20399;-78
2022/04/27 08:46:15;;;;;;;5.55;4.93;;;18.10;56.40;;;;;;6183538;23;20377;-79
2022/04/27 08:48:47;;;;;;;6.40;4.70;;;18.20;56.70;;;;;;6183125;23;20702;-78
2022/04/27 08:51:14;;;;;;;6.35;4.63;;;18.50;56.50;;;;;;6181772;23;20376;-77
2022/04/27 08:53:45;;;;;;;7.30;5.30;;;18.50;56.20;;;;;;6181179;23;20381;-79
2022/04/27 08:56:15;;;;;;;8.18;5.80;;;18.40;55.30;;;;;;6160629;23;20736;-79
2022/04/27 08:58:42;;;;;;;5.80;5.20;;;18.40;56.00;;;;;;6179040;23;20698;-80
2022/04/27 09:01:10;;;;;;;5.88;4.78;;;18.20;57.60;;;;;;6185082;23;20428;-79
2022/04/27 09:03:39;;;;;;;4.72;4.25;;;18.50;57.70;;;;;;6184038;23;20372;-80
2022/04/27 09:06:12;;;;;;;6.33;4.43;;;18.80;57.20;;;;;;6183571;23;20368;-78
2022/04/27 09:08:44;;;;;;;6.78;5.10;;;19.00;56.40;;;;;;6182491;23;20369;-78
2022/04/27 09:11:15;;;;;;;5.40;4.55;;;19.20;55.70;;;;;;6184881;23;20871;-80
2022/04/27 09:13:48;;;;;;;4.77;3.57;;;19.20;55.20;;;;;;6182804;23;20368;-78
2022/04/27 09:16:18;;;;;;;6.25;2.83;;;19.00;51.90;;;;;;6182259;23;20377;-79
2022/04/27 09:21:55;;;;;;;5.75;3.65;;;19.50;52.30;;;;;;6182318;23;20666;-80
2022/04/27 09:24:23;;;;;;;3.33;2.72;;;19.80;52.10;;;;;;6183960;23;20365;-78
2022/04/27 09:27:23;;;;;;;4.88;3.15;;;19.90;51.00;;;;;;6183526;23;20387;-80
2022/04/27 09:29:57;;;;;;;6.53;3.53;;;20.00;51.50;;;;;;6151579;23;20840;-78
2022/04/27 09:32:25;;;;;;;3.47;2.53;;;20.00;49.80;;;;;;6182597;23;20380;-78
2022/04/27 09:34:52;;;;;;;6.72;3.22;;;19.10;49.00;;;;;;6184470;23;20377;-80
2022/04/27 09:37:21;;;;;;;4.53;3.53;;;19.10;52.30;;;;;;6183272;23;20993;-79
2022/04/27 09:40:06;;;;;;;5.38;3.78;;;19.40;54.10;;;;;;6182426;23;20369;-79
2022/04/27 09:42:59;;;;;;;3.77;2.70;;;19.60;53.00;;;;;;6182315;23;20399;-80
2022/04/27 09:45:26;;;;;;;4.75;3.05;;;19.70;51.80;;;;;;6183039;23;20903;-80
2022/04/27 09:48:01;;;;;;;3.88;2.80;;;19.70;50.70;;;;;;6183035;23;20485;-80
2022/04/27 09:50:58;;;;;;;7.03;3.80;;;19.70;51.30;;;;;;6182962;23;20398;-78
2022/04/27 09:53:26;;;;;;;4.45;2.97;;;19.60;51.80;;;;;;6176106;23;20459;-80
2022/04/27 09:55:55;;;;;;;2.83;1.90;;;19.20;51.20;;;;;;6183208;23;20376;-80
2022/04/27 09:58:26;;;;;;;3.17;1.70;;;19.60;50.50;;;;;;6181425;23;20376;-80
2022/04/27 10:01:04;;;;;;;2.17;1.00;;;19.70;49.60;;;;;;6182170;23;20377;-80
2022/04/27 10:03:35;;;;;;;12.65;2.20;;;19.80;48.50;;;;;;6180896;23;20387;-80
2022/04/27 10:06:02;;;;;;;41.05;8.52;;;20.00;47.80;;;;;;6181372;23;20395;-80
2022/04/27 10:08:30;;;;;;;2.63;1.50;;;20.00;49.40;;;;;;6181516;22;20443;-80
2022/04/27 10:10:57;;;;;;;3.55;1.30;;;19.90;47.80;;;;;;6180937;23;20439;-78
2022/04/27 10:13:25;;;;;;;2.17;1.40;;;20.20;46.50;;;;;;6182301;23;20376;-78
2022/04/27 10:15:53;;;;;;;4.20;1.83;;;20.40;47.00;;;;;;6184660;23;20412;-79
2022/04/27 10:18:21;;;;;;;2.47;1.30;;;20.00;46.20;;;;;;6183170;23;20454;-80
2022/04/27 10:20:51;;;;;;;3.75;1.63;;;19.70;46.80;;;;;;6183616;23;20368;-78
2022/04/27 10:23:19;;;;;;;3.75;2.13;;;19.70;49.20;;;;;;6182394;23;20428;-78
2022/04/27 10:26:09;;;;;;;4.85;1.73;;;20.00;47.90;;;;;;6181616;23;20376;-78
2022/04/27 10:28:38;;;;;;;3.17;2.30;;;20.20;49.40;;;;;;6181010;23;20403;-79
2022/04/27 10:31:08;;;;;;;4.67;2.43;;;20.10;47.60;;;;;;6182668;23;20439;-80
2022/04/27 10:34:10;;;;;;;4.43;3.03;;;20.40;47.10;;;;;;6183609;23;20856;-80
2022/04/27 10:36:38;;;;;;;4.40;2.65;;;20.60;45.90;;;;;;6183430;23;20381;-77
2022/04/27 10:39:15;;;;;;;7.28;3.30;;;20.80;47.30;;;;;;6182859;23;20376;-79
2022/04/27 10:41:49;;;;;;;6.47;3.05;;;21.10;46.40;;;;;;6204947;23;20377;-79
2022/04/27 10:44:16;;;;;;;3.03;2.70;;;21.00;44.60;;;;;;6182680;23;20376;-79
2022/04/27 10:46:46;;;;;;;3.80;2.70;;;20.80;47.10;;;;;;6182510;23;21219;-78
2022/04/27 10:49:23;;;;;;;3.53;2.60;;;20.70;45.40;;;;;;6182944;23;20396;-80
2022/04/27 10:52:08;;;;;;;4.38;2.88;;;20.60;46.40;;;;;;6181649;22;20368;-79
2022/04/27 10:54:37;;;;;;;4.25;3.28;;;20.10;45.30;;;;;;6181798;23;20372;-81
2022/04/27 10:57:16;;;;;;;4.38;3.00;;;20.20;45.30;;;;;;6183232;23;20380;-79
2022/04/27 10:59:53;;;;;;;3.85;2.67;;;20.10;47.40;;;;;;6182292;23;20841;-79
2022/04/27 11:02:41;;;;;;;3.97;2.78;;;20.80;47.40;;;;;;6182532;23;20927;-80
2022/04/27 11:05:11;;;;;;;4.28;2.30;;;21.20;45.60;;;;;;6208099;22;20384;-80
2022/04/27 11:07:59;;;;;;;4.75;2.28;;;21.40;43.30;;;;;;6180682;23;20442;-78
2022/04/27 11:10:26;;;;;;;3.05;1.70;;;21.30;43.90;;;;;;6180587;23;20427;-79
2022/04/27 11:12:55;;;;;;;3.50;1.50;;;21.60;43.60;;;;;;6181650;23;20376;-79
2022/04/27 11:15:27;;;;;;;5.15;2.47;;;21.80;43.70;;;;;;6179653;23;20368;-79
2022/04/27 11:17:56;;;;;;;4.85;2.25;;;21.80;41.30;;;;;;6183624;23;20384;-81
2022/04/27 11:20:33;;;;;;;8.07;3.05;;;21.90;42.70;;;;;;6181569;23;20372;-81
2022/04/27 11:23:03;;;;;;;4.45;2.55;;;21.80;43.10;;;;;;6181646;23;20761;-79
2022/04/27 11:25:32;;;;;;;7.13;2.00;;;21.80;44.20;;;;;;6182157;23;20420;-78
2022/04/27 11:28:00;;;;;;;2.42;1.55;;;22.00;42.90;;;;;;6182014;23;20380;-81
2022/04/27 11:30:29;;;;;;;2.15;1.88;;;22.10;40.10;;;;;;6181764;23;20369;-78
2022/04/27 11:32:56;;;;;;;2.85;1.50;;;21.20;40.80;;;;;;6180872;23;20423;-80
2022/04/27 11:35:25;;;;;;;3.20;1.40;;;20.90;40.40;;;;;;6179709;23;20368;-80
2022/04/27 11:37:55;;;;;;;1.95;1.20;;;21.20;40.00;;;;;;6181403;23;20372;-79
2022/04/27 11:40:27;;;;;;;2.83;1.40;;;21.40;39.70;;;;;;6179091;23;20403;-80
2022/04/27 11:42:59;;;;;;;3.05;1.35;;;21.80;40.50;;;;;;6180049;23;20396;-80
2022/04/27 11:45:27;;;;;;;3.07;1.70;;;21.50;40.40;;;;;;6179211;23;20451;-79
2022/04/27 11:48:05;;;;;;;3.00;1.60;;;21.30;39.20;;;;;;6180996;23;20382;-80
2022/04/27 11:50:34;;;;;;;2.65;1.67;;;21.40;42.00;;;;;;6179744;23;20380;-82
2022/04/27 11:53:07;;;;;;;2.55;1.52;;;21.50;39.00;;;;;;6181427;23;20376;-80
2022/04/27 11:55:36;;;;;;;2.43;1.20;;;21.40;39.60;;;;;;6174277;23;28023;-80
2022/04/27 11:58:05;;;;;;;2.45;1.17;;;21.90;40.50;;;;;;6177203;23;20386;-79
2022/04/27 12:00:34;;;;;;;2.23;1.40;;;22.10;38.30;;;;;;6151034;23;20453;-80
2022/04/27 12:03:06;;;;;;;3.30;1.50;;;22.30;39.10;;;;;;6174801;23;20423;-82
2022/04/27 12:05:36;;;;;;;2.78;1.63;;;22.30;38.40;;;;;;6151433;23;20376;-80
2022/04/27 12:08:11;;;;;;;2.75;1.52;;;22.60;37.90;;;;;;6176826;23;20389;-80
2022/04/27 12:10:39;;;;;;;3.40;1.57;;;22.70;36.70;;;;;;6177687;23;20370;-79
2022/04/27 12:13:07;;;;;;;2.00;1.30;;;22.80;38.20;;;;;;6179302;23;20381;-82
2022/04/27 12:15:35;;;;;;;2.42;1.60;;;22.70;37.90;;;;;;6156885;23;20374;-82
2022/04/27 12:18:03;;;;;;;3.03;1.60;;;21.60;38.50;;;;;;6178176;23;20374;-80
2022/04/27 12:20:39;;;;;;;2.30;1.20;;;21.30;37.80;;;;;;6176531;23;20374;-79
2022/04/27 12:23:10;;;;;;;2.03;1.25;;;21.70;39.40;;;;;;6175988;23;20377;-80
2022/04/27 12:25:58;;;;;;;3.95;2.17;;;22.10;37.70;;;;;;6176061;23;20978;-82
2022/04/27 12:28:29;;;;;;;2.15;1.70;;;21.50;36.80;;;;;;6175890;23;20405;-80
2022/04/27 12:31:16;;;;;;;2.30;1.40;;;21.70;38.50;;;;;;6152233;23;20401;-79
2022/04/27 12:33:46;;;;;;;2.78;1.70;;;22.00;39.10;;;;;;6175229;23;20444;-79
2022/04/27 12:39:06;;;;;;;5.20;1.80;;;22.50;37.20;;;;;;6151788;23;20366;-79
2022/04/27 12:41:45;;;;;;;3.35;1.35;;;23.10;37.50;;;;;;6175790;23;20432;-82
2022/04/27 12:44:17;;;;;;;2.60;1.60;;;23.00;37.50;;;;;;6174808;23;20715;-80
2022/04/27 12:47:05;;;;;;;3.65;1.90;;;23.00;37.30;;;;;;6172253;23;20707;-82
2022/04/27 12:49:34;;;;;;;2.20;1.50;;;23.30;37.50;;;;;;6174661;23;20397;-81
2022/04/27 12:52:23;;;;;;;3.03;1.80;;;23.50;37.10;;;;;;6174258;23;20371;-80
2022/04/27 12:55:07;;;;;;;1.98;1.20;;;23.80;36.90;;;;;;6149599;23;20859;-81
2022/04/27 12:57:59;;;;;;;2.80;1.88;;;23.90;35.30;;;;;;6174362;23;20839;-78
2022/04/27 13:00:44;;;;;;;3.10;2.15;;;23.70;36.80;;;;;;6173686;23;20402;-79
2022/04/27 13:03:14;;;;;;;3.10;1.73;;;23.80;37.50;;;;;;6174361;23;20374;-82
2022/04/27 13:05:44;;;;;;;2.60;2.10;;;24.10;36.60;;;;;;6174877;23;20429;-79
2022/04/27 13:08:11;;;;;;;2.13;1.38;;;24.30;35.60;;;;;;6173910;23;20460;-79
2022/04/27 13:13:25;;;;;;;3.70;1.75;;;23.80;36.90;;;;;;6151475;23;20894;-78
2022/04/27 13:15:53;;;;;;;5.70;2.08;;;23.60;36.40;;;;;;6174261;23;20912;-79
2022/04/27 13:18:21;;;;;;;2.60;1.70;;;23.70;36.40;;;;;;6174297;23;20874;-80
2022/04/27 13:20:52;;;;;;;1.80;1.50;;;23.70;36.20;;;;;;6174743;23;20378;-79